createdAt,value
2023-10-27T00:00:56.191Z,10.02
2023-10-27T00:03:22.822Z,9.98
2023-10-27T00:05:49.609Z,9.95
2023-10-27T00:08:16.659Z,9.93
2023-10-27T00:10:43.218Z,9.93
2023-10-27T00:13:09.844Z,9.93
2023-10-27T00:15:36.472Z,9.94
2023-10-27T00:18:03.226Z,9.92
2023-10-27T00:20:29.804Z,9.92
2023-10-27T00:22:56.274Z,9.97
2023-10-27T00:25:22.925Z,9.99
2023-10-27T00:27:49.627Z,10.01
2023-10-27T00:30:16.499Z,10.04
2023-10-27T00:32:43.091Z,10.02
2023-10-27T00:35:10.095Z,9.99
2023-10-27T00:37:39.523Z,10.00
2023-10-27T00:40:08.619Z,10.01
2023-10-27T00:42:35.125Z,9.98
2023-10-27T00:45:01.818Z,10.00
2023-10-27T00:47:30.140Z,10.01
2023-10-27T00:49:57.510Z,10.01
2023-10-27T00:52:26.300Z,9.96
2023-10-27T00:54:54.429Z,9.96
2023-10-27T00:57:23.978Z,9.97
2023-10-27T00:59:53.308Z,10.00
2023-10-27T01:02:20.168Z,9.99
2023-10-27T01:04:46.988Z,9.98
2023-10-27T01:07:14.478Z,10.00
2023-10-27T01:09:41.368Z,9.99
2023-10-27T01:12:08.200Z,9.94
2023-10-27T01:14:34.772Z,9.96
2023-10-27T01:17:01.353Z,9.94
2023-10-27T01:19:27.953Z,9.87
2023-10-27T01:21:55.168Z,9.88
2023-10-27T01:24:23.575Z,9.92
2023-10-27T01:26:50.829Z,9.94
2023-10-27T01:29:17.547Z,9.90
2023-10-27T01:31:44.221Z,9.89
2023-10-27T01:34:12.320Z,9.96
2023-10-27T01:36:38.957Z,9.90
2023-10-27T01:39:06.726Z,9.95
2023-10-27T01:41:33.204Z,9.94
2023-10-27T01:44:00.140Z,9.93
2023-10-27T01:46:26.739Z,9.93
2023-10-27T01:48:54.100Z,9.92
2023-10-27T01:51:20.634Z,9.90
2023-10-27T01:53:47.234Z,9.91
2023-10-27T01:56:13.732Z,9.87
2023-10-27T01:58:45.404Z,9.87
2023-10-27T02:01:13.915Z,9.90
2023-10-27T02:03:40.440Z,9.89
2023-10-27T02:06:07.048Z,9.88
2023-10-27T02:08:36.371Z,9.91
2023-10-27T02:11:04.050Z,9.87
2023-10-27T02:13:30.704Z,9.87
2023-10-27T02:15:57.572Z,9.86
2023-10-27T02:18:24.070Z,9.86
2023-10-27T02:20:50.699Z,9.88
2023-10-27T02:23:17.400Z,9.91
2023-10-27T02:25:45.111Z,9.90
2023-10-27T02:28:11.672Z,9.89
2023-10-27T02:30:38.187Z,9.87
2023-10-27T02:33:04.756Z,9.86
2023-10-27T02:35:31.360Z,9.83
2023-10-27T02:37:57.833Z,9.81
2023-10-27T02:40:24.475Z,9.82
2023-10-27T02:42:51.376Z,9.83
2023-10-27T02:45:18.125Z,9.87
2023-10-27T02:47:44.623Z,9.86
2023-10-27T02:50:11.518Z,9.87
2023-10-27T02:52:37.996Z,9.88
2023-10-27T02:55:05.031Z,9.85
2023-10-27T02:57:31.611Z,9.87
2023-10-27T02:59:58.482Z,9.86
2023-10-27T03:02:25.167Z,9.81
2023-10-27T03:04:53.138Z,9.82
2023-10-27T03:07:19.907Z,9.81
2023-10-27T03:09:46.583Z,9.81
2023-10-27T03:12:13.401Z,9.79
2023-10-27T03:14:39.874Z,9.75
2023-10-27T03:17:06.391Z,9.73
2023-10-27T03:19:32.976Z,9.72
2023-10-27T03:22:00.090Z,9.73
2023-10-27T03:24:26.613Z,9.71
2023-10-27T03:26:53.245Z,9.74
2023-10-27T03:29:19.974Z,9.73
2023-10-27T03:31:46.496Z,9.69
2023-10-27T03:34:13.274Z,9.69
2023-10-27T03:36:41.320Z,9.69
2023-10-27T03:39:11.356Z,9.67
2023-10-27T03:41:37.881Z,9.66
2023-10-27T03:44:05.025Z,9.64
2023-10-27T03:46:31.631Z,9.63
2023-10-27T03:48:59.594Z,9.60
2023-10-27T03:51:26.790Z,9.59
2023-10-27T03:53:55.668Z,9.55
2023-10-27T03:56:22.126Z,9.53
2023-10-27T03:58:48.798Z,9.53
2023-10-27T04:01:16.348Z,9.56
2023-10-27T04:03:43.102Z,9.51
2023-10-27T04:06:10.745Z,9.55
2023-10-27T04:08:37.223Z,9.55
2023-10-27T04:11:04.056Z,9.53
2023-10-27T04:13:30.754Z,9.51
2023-10-27T04:15:57.291Z,9.48
2023-10-27T04:18:23.932Z,9.41
2023-10-27T04:20:50.781Z,9.44
2023-10-27T04:23:17.401Z,9.43
2023-10-27T04:25:43.982Z,9.44
2023-10-27T04:28:10.521Z,9.42
2023-10-27T04:30:37.788Z,9.43
2023-10-27T04:33:05.965Z,9.44
2023-10-27T04:35:34.028Z,9.44
2023-10-27T04:38:00.567Z,9.45
2023-10-27T04:40:29.370Z,9.41
2023-10-27T04:42:58.351Z,9.40
2023-10-27T04:45:26.144Z,9.43
2023-10-27T04:47:52.789Z,9.48
2023-10-27T04:50:19.414Z,9.46
2023-10-27T04:52:48.655Z,9.45
2023-10-27T04:55:15.219Z,9.42
2023-10-27T04:57:42.354Z,9.43
2023-10-27T05:00:09.596Z,9.42
2023-10-27T05:02:36.215Z,9.43
2023-10-27T05:05:03.537Z,9.44
2023-10-27T05:07:30.351Z,9.46
2023-10-27T05:09:57.533Z,9.42
2023-10-27T05:12:24.186Z,9.42
2023-10-27T05:14:50.729Z,9.45
2023-10-27T05:17:18.430Z,9.47
2023-10-27T05:19:45.172Z,9.43
2023-10-27T05:22:11.873Z,9.41
2023-10-27T05:24:38.438Z,9.41
2023-10-27T05:27:05.083Z,9.39
2023-10-27T05:29:31.817Z,9.37
2023-10-27T05:31:58.506Z,9.41
2023-10-27T05:34:25.055Z,9.37
2023-10-27T05:36:52.187Z,9.39
2023-10-27T05:39:19.024Z,9.34
2023-10-27T05:41:47.607Z,9.29
2023-10-27T05:44:17.649Z,9.31
2023-10-27T05:46:44.372Z,9.24
2023-10-27T05:49:10.913Z,9.17
2023-10-27T05:51:37.495Z,9.18
2023-10-27T05:54:05.348Z,9.19
2023-10-27T05:56:31.975Z,9.13
2023-10-27T05:58:58.566Z,9.14
2023-10-27T06:01:25.130Z,9.11
2023-10-27T06:03:51.800Z,9.16
2023-10-27T06:06:18.435Z,9.14
2023-10-27T06:08:48.843Z,9.11
2023-10-27T06:11:16.272Z,9.12
2023-10-27T06:13:42.764Z,9.16
2023-10-27T06:16:09.405Z,9.20
2023-10-27T06:18:36.158Z,9.19
2023-10-27T06:21:02.721Z,9.18
2023-10-27T06:23:29.295Z,9.20
2023-10-27T06:25:55.751Z,9.22
2023-10-27T06:28:22.359Z,9.19
2023-10-27T06:30:48.861Z,9.24
2023-10-27T06:33:15.523Z,9.26
2023-10-27T06:35:42.150Z,9.24
2023-10-27T06:38:08.636Z,9.26
2023-10-27T06:40:35.151Z,9.28
2023-10-27T06:43:01.752Z,9.27
2023-10-27T06:45:28.527Z,9.28
2023-10-27T06:47:55.105Z,9.31
2023-10-27T06:50:21.807Z,9.28
2023-10-27T06:52:48.401Z,9.22
2023-10-27T06:55:14.963Z,9.23
2023-10-27T06:57:41.556Z,9.24
2023-10-27T07:00:08.675Z,9.21
2023-10-27T07:02:49.595Z,9.22
2023-10-27T07:05:21.818Z,9.25
2023-10-27T07:07:48.738Z,9.29
2023-10-27T07:10:15.800Z,9.33
2023-10-27T07:12:42.538Z,9.34
2023-10-27T07:15:09.450Z,9.30
2023-10-27T07:17:36.102Z,9.31
2023-10-27T07:20:04.187Z,9.29
2023-10-27T07:22:31.331Z,9.24
2023-10-27T07:24:57.887Z,9.20
2023-10-27T07:27:24.400Z,9.21
2023-10-27T07:29:50.895Z,9.25
2023-10-27T07:32:17.479Z,9.25
2023-10-27T07:34:44.391Z,9.21
2023-10-27T07:37:11.334Z,9.25
2023-10-27T07:39:37.866Z,9.32
2023-10-27T07:42:04.574Z,9.34
2023-10-27T07:44:31.352Z,9.38
2023-10-27T07:47:00.924Z,9.32
2023-10-27T07:49:27.428Z,9.35
2023-10-27T07:51:53.956Z,9.32
2023-10-27T07:54:20.415Z,9.32
2023-10-27T07:56:47.395Z,9.36
2023-10-27T07:59:15.318Z,9.38
2023-10-27T08:01:41.954Z,9.41
2023-10-27T08:04:08.515Z,9.41
2023-10-27T08:06:35.152Z,9.39
2023-10-27T08:09:01.599Z,9.44
2023-10-27T08:11:28.157Z,9.51
2023-10-27T08:13:54.655Z,9.51
2023-10-27T08:16:21.293Z,9.49
2023-10-27T08:18:47.807Z,9.46
2023-10-27T08:21:14.357Z,9.53
2023-10-27T08:23:40.898Z,9.59
2023-10-27T08:26:07.468Z,9.58
2023-10-27T08:28:34.059Z,9.58
2023-10-27T08:31:00.520Z,9.61
2023-10-27T08:33:28.102Z,9.71
2023-10-27T08:35:54.766Z,9.65
2023-10-27T08:38:21.341Z,9.66
2023-10-27T08:40:47.869Z,9.63
2023-10-27T08:43:15.475Z,9.62
2023-10-27T08:45:44.122Z,9.62
2023-10-27T08:48:13.958Z,9.61
2023-10-27T08:50:41.776Z,9.66
2023-10-27T08:53:13.055Z,9.71
2023-10-27T08:55:39.928Z,9.67
2023-10-27T08:58:06.574Z,9.64
2023-10-27T09:00:33.053Z,9.61
2023-10-27T09:02:59.592Z,9.61
2023-10-27T09:05:26.312Z,9.63
2023-10-27T09:07:53.085Z,9.63
2023-10-27T09:10:20.184Z,9.63
2023-10-27T09:12:48.942Z,9.63
2023-10-27T09:15:15.560Z,9.64
2023-10-27T09:17:57.179Z,9.59
2023-10-27T09:20:25.184Z,9.64
2023-10-27T09:23:01.547Z,9.68
2023-10-27T09:25:34.380Z,9.66
2023-10-27T09:28:07.148Z,9.65
2023-10-27T09:30:38.775Z,9.69
2023-10-27T09:33:18.194Z,9.69
2023-10-27T09:35:46.643Z,9.70
2023-10-27T09:38:14.601Z,9.65
2023-10-27T09:40:43.183Z,9.62
2023-10-27T09:43:16.267Z,9.66
2023-10-27T09:45:51.149Z,9.70
2023-10-27T09:48:22.895Z,9.71
2023-10-27T09:50:50.225Z,9.71
2023-10-27T09:53:17.575Z,9.73
2023-10-27T09:55:45.617Z,9.74
2023-10-27T09:58:14.760Z,9.76
2023-10-27T10:00:42.680Z,9.73
2023-10-27T10:03:09.888Z,9.71
2023-10-27T10:06:12.001Z,9.72
2023-10-27T10:08:39.861Z,9.73
2023-10-27T10:11:16.092Z,9.78
2023-10-27T10:13:42.698Z,9.79
2023-10-27T10:16:12.368Z,9.72
2023-10-27T10:18:39.974Z,9.73
2023-10-27T10:21:07.455Z,9.76
2023-10-27T10:23:41.210Z,9.80
2023-10-27T10:26:07.815Z,9.73
2023-10-27T10:28:35.098Z,9.73
2023-10-27T10:31:07.981Z,9.74
2023-10-27T10:33:36.649Z,9.74
2023-10-27T10:36:13.059Z,9.77
2023-10-27T10:38:41.944Z,9.74
2023-10-27T10:41:09.277Z,9.70
2023-10-27T10:43:38.016Z,9.73
2023-10-27T10:46:11.747Z,9.80
2023-10-27T10:48:48.358Z,9.84
2023-10-27T10:51:19.612Z,9.82
2023-10-27T10:53:54.696Z,9.83
2023-10-27T10:56:21.340Z,9.94
2023-10-27T10:58:48.144Z,9.96
2023-10-27T11:01:17.163Z,10.02
2023-10-27T11:03:51.954Z,10.05
2023-10-27T11:06:23.703Z,10.07
2023-10-27T11:08:50.899Z,10.11
2023-10-27T11:11:20.574Z,10.20
2023-10-27T11:13:48.710Z,10.15
2023-10-27T11:16:16.554Z,10.22
2023-10-27T11:18:44.915Z,10.25
2023-10-27T11:21:25.357Z,10.20
2023-10-27T11:23:52.861Z,10.15
2023-10-27T11:26:21.637Z,10.20
2023-10-27T11:28:48.553Z,10.21
2023-10-27T11:31:24.197Z,10.27
2023-10-27T11:34:07.474Z,10.22
2023-10-27T11:36:40.185Z,10.27
2023-10-27T11:39:15.625Z,10.23
2023-10-27T11:41:43.738Z,10.27
2023-10-27T11:44:10.246Z,10.37
2023-10-27T11:46:37.239Z,10.41
2023-10-27T11:49:03.935Z,10.34
2023-10-27T11:51:33.186Z,10.27
2023-10-27T11:54:00.235Z,10.22
2023-10-27T11:56:26.930Z,10.21
2023-10-27T11:58:53.473Z,10.26
2023-10-27T12:01:20.302Z,10.30
2023-10-27T12:03:47.517Z,10.23
2023-10-27T12:06:14.157Z,10.29
2023-10-27T12:08:40.693Z,10.33
2023-10-27T12:11:07.190Z,10.34
2023-10-27T12:13:33.809Z,10.37
2023-10-27T12:16:00.577Z,10.35
2023-10-27T12:18:27.115Z,10.39
2023-10-27T12:20:53.656Z,10.39
2023-10-27T12:23:20.481Z,10.39
2023-10-27T12:25:47.050Z,10.42
2023-10-27T12:28:13.706Z,10.40
2023-10-27T12:30:40.294Z,10.44
2023-10-27T12:33:09.311Z,10.43
2023-10-27T12:35:36.221Z,10.42
2023-10-27T12:38:02.900Z,10.38
2023-10-27T12:40:29.449Z,10.39
2023-10-27T12:42:56.035Z,10.39
2023-10-27T12:45:22.518Z,10.35
2023-10-27T12:47:50.534Z,10.35
2023-10-27T12:50:17.619Z,10.42
2023-10-27T12:52:44.480Z,10.40
2023-10-27T12:55:12.670Z,10.43
2023-10-27T12:57:39.261Z,10.42
2023-10-27T13:00:12.147Z,10.38
2023-10-27T13:02:39.416Z,10.35
2023-10-27T13:05:06.144Z,10.33
2023-10-27T13:07:32.766Z,10.35
2023-10-27T13:09:59.333Z,10.34
2023-10-27T13:12:25.814Z,10.38
2023-10-27T13:14:52.393Z,10.42
2023-10-27T13:17:18.835Z,10.45
2023-10-27T13:19:47.350Z,10.39
2023-10-27T13:22:13.932Z,10.35
2023-10-27T13:24:40.672Z,10.32
2023-10-27T13:27:09.098Z,10.31
2023-10-27T13:29:36.112Z,10.32
2023-10-27T13:32:02.658Z,10.33
2023-10-27T13:34:30.888Z,10.35
2023-10-27T13:36:57.537Z,10.32
2023-10-27T13:39:24.034Z,10.32
2023-10-27T13:41:50.687Z,10.37
2023-10-27T13:44:17.172Z,10.38
2023-10-27T13:46:44.374Z,10.37
2023-10-27T13:49:13.635Z,10.32
2023-10-27T13:51:42.298Z,10.32
2023-10-27T13:54:12.589Z,10.29
2023-10-27T13:56:39.664Z,10.30
2023-10-27T13:59:06.277Z,10.23
2023-10-27T14:01:35.990Z,10.23
2023-10-27T14:04:05.037Z,10.27
2023-10-27T14:06:33.705Z,10.27
2023-10-27T14:09:00.196Z,10.22
2023-10-27T14:11:26.844Z,10.24
2023-10-27T14:13:56.375Z,10.26
2023-10-27T14:16:22.917Z,10.23
2023-10-27T14:18:49.489Z,10.18
2023-10-27T14:21:17.506Z,10.20
2023-10-27T14:23:44.094Z,10.17
2023-10-27T14:26:15.210Z,10.17
2023-10-27T14:28:43.454Z,10.20
2023-10-27T14:31:10.171Z,10.18
2023-10-27T14:33:38.053Z,10.18
2023-10-27T14:36:09.309Z,10.21
2023-10-27T14:38:38.932Z,10.23
2023-10-27T14:41:10.961Z,10.09
2023-10-27T14:43:39.010Z,10.11
2023-10-27T14:46:05.867Z,10.11
2023-10-27T14:48:32.543Z,10.06
2023-10-27T14:51:02.932Z,10.10
2023-10-27T14:53:29.639Z,10.05
2023-10-27T14:56:03.134Z,10.07
2023-10-27T14:58:32.039Z,10.08
2023-10-27T15:01:03.427Z,10.07
2023-10-27T15:03:30.548Z,10.09
2023-10-27T15:05:57.760Z,10.02
2023-10-27T15:08:24.436Z,10.01
2023-10-27T15:10:51.601Z,10.06
2023-10-27T15:13:18.501Z,10.11
2023-10-27T15:15:45.533Z,10.10
2023-10-27T15:18:12.069Z,10.11
2023-10-27T15:20:38.548Z,10.06
2023-10-27T15:23:06.777Z,9.95
2023-10-27T15:25:35.876Z,10.00
2023-10-27T15:28:22.236Z,9.98
2023-10-27T15:31:02.972Z,9.96
2023-10-27T15:33:30.567Z,9.94
2023-10-27T15:36:04.560Z,9.93
2023-10-27T15:38:31.095Z,9.92
2023-10-27T15:40:58.229Z,9.89
2023-10-27T15:43:25.004Z,9.93
2023-10-27T15:46:00.549Z,9.91
2023-10-27T15:48:27.996Z,9.86
2023-10-27T15:51:04.782Z,9.88
2023-10-27T15:53:32.416Z,9.77
2023-10-27T15:55:59.514Z,9.76
2023-10-27T15:58:27.500Z,9.74
2023-10-27T16:00:55.802Z,9.77
2023-10-27T16:03:23.570Z,9.79
2023-10-27T16:05:50.173Z,9.79
2023-10-27T16:08:17.112Z,9.76
2023-10-27T16:10:43.651Z,9.70
2023-10-27T16:13:10.226Z,9.71
2023-10-27T16:15:37.922Z,9.70
2023-10-27T16:18:06.078Z,9.78
2023-10-27T16:20:33.240Z,9.74
2023-10-27T16:23:00.773Z,9.69
2023-10-27T16:25:27.794Z,9.67
2023-10-27T16:27:55.062Z,9.72
2023-10-27T16:30:21.850Z,9.71
2023-10-27T16:32:48.347Z,9.76
2023-10-27T16:35:15.372Z,9.71
2023-10-27T16:37:44.910Z,9.72
2023-10-27T16:40:13.143Z,9.72
2023-10-27T16:42:40.143Z,9.74
2023-10-27T16:45:08.151Z,9.76
2023-10-27T16:47:38.030Z,9.73
2023-10-27T16:50:10.808Z,9.70
2023-10-27T16:52:37.469Z,9.68
2023-10-27T16:55:04.363Z,9.67
2023-10-27T16:57:32.488Z,9.67
2023-10-27T16:59:59.582Z,9.63
2023-10-27T17:02:26.749Z,9.65
2023-10-27T17:04:54.088Z,9.63
2023-10-27T17:07:21.562Z,9.63
2023-10-27T17:09:52.490Z,9.59
2023-10-27T17:12:20.124Z,9.60
2023-10-27T17:14:50.171Z,9.53
2023-10-27T17:17:16.806Z,9.54
2023-10-27T17:19:45.043Z,9.54
2023-10-27T17:22:12.067Z,9.50
2023-10-27T17:24:38.637Z,9.50
2023-10-27T17:27:05.731Z,9.51
2023-10-27T17:29:32.216Z,9.53
2023-10-27T17:31:58.762Z,9.53
2023-10-27T17:34:25.727Z,9.52
2023-10-27T17:36:52.312Z,9.49
2023-10-27T17:39:18.815Z,9.48
2023-10-27T17:41:47.312Z,9.48
2023-10-27T17:44:14.248Z,9.47
2023-10-27T17:46:45.874Z,9.45
2023-10-27T17:49:14.947Z,9.47
2023-10-27T17:51:41.536Z,9.43
2023-10-27T17:54:08.043Z,9.46
2023-10-27T17:56:37.122Z,9.51
2023-10-27T17:59:04.403Z,9.51
2023-10-27T18:01:33.051Z,9.48
2023-10-27T18:03:59.953Z,9.46
2023-10-27T18:06:26.478Z,9.46
2023-10-27T18:08:53.070Z,9.44
2023-10-27T18:11:24.707Z,9.43
2023-10-27T18:13:55.324Z,9.47
2023-10-27T18:16:21.910Z,9.49
2023-10-27T18:18:48.579Z,9.45
2023-10-27T18:21:15.112Z,9.46
2023-10-27T18:23:42.025Z,9.44
2023-10-27T18:26:18.368Z,9.42
2023-10-27T18:28:49.086Z,9.45
2023-10-27T18:31:19.301Z,9.40
2023-10-27T18:33:46.372Z,9.39
2023-10-27T18:36:17.599Z,9.43
2023-10-27T18:38:48.481Z,9.41
2023-10-27T18:41:15.704Z,9.42
2023-10-27T18:43:43.413Z,9.44
2023-10-27T18:46:11.332Z,9.40
2023-10-27T18:48:38.306Z,9.42
2023-10-27T18:51:05.258Z,9.41
2023-10-27T18:53:35.980Z,9.35
2023-10-27T18:56:08.207Z,9.34
2023-10-27T18:58:39.247Z,9.39
2023-10-27T19:01:10.575Z,9.37
2023-10-27T19:03:42.854Z,9.41
2023-10-27T19:06:10.927Z,9.41
2023-10-27T19:08:37.575Z,9.40
2023-10-27T19:11:09.050Z,9.45
2023-10-27T19:13:37.127Z,9.43
2023-10-27T19:16:05.151Z,9.39
2023-10-27T19:18:34.897Z,9.37
2023-10-27T19:21:19.581Z,9.41
2023-10-27T19:23:51.594Z,9.38
2023-10-27T19:26:20.212Z,9.34
2023-10-27T19:28:49.156Z,9.34
2023-10-27T19:31:17.828Z,9.37
2023-10-27T19:33:46.530Z,9.41
2023-10-27T19:36:16.073Z,9.41
2023-10-27T19:38:43.189Z,9.44
2023-10-27T19:41:12.520Z,9.45
2023-10-27T19:43:39.200Z,9.45
2023-10-27T19:46:09.472Z,9.45
2023-10-27T19:48:37.385Z,9.46
2023-10-27T19:51:05.590Z,9.41
2023-10-27T19:53:32.508Z,9.42
2023-10-27T19:55:59.058Z,9.43
2023-10-27T19:58:25.707Z,9.39
2023-10-27T20:00:52.907Z,9.36
2023-10-27T20:03:20.130Z,9.33
2023-10-27T20:05:50.591Z,9.29
2023-10-27T20:08:18.142Z,9.27
2023-10-27T20:10:48.768Z,9.28
2023-10-27T20:13:16.327Z,9.13
2023-10-27T20:15:44.081Z,9.12
2023-10-27T20:18:11.883Z,9.11
2023-10-27T20:20:42.744Z,9.12
2023-10-27T20:23:12.783Z,9.09
2023-10-27T20:25:39.312Z,9.03
2023-10-27T20:28:08.713Z,9.03
2023-10-27T20:30:36.663Z,9.01
2023-10-27T20:33:03.226Z,8.99
2023-10-27T20:35:29.780Z,8.99
2023-10-27T20:37:57.026Z,8.97
2023-10-27T20:40:25.131Z,8.91
2023-10-27T20:42:51.744Z,8.97
2023-10-27T20:45:18.793Z,8.98
2023-10-27T20:47:47.700Z,8.95
2023-10-27T20:50:15.373Z,8.97
2023-10-27T20:52:43.861Z,8.91
2023-10-27T20:55:10.809Z,8.96
2023-10-27T20:57:37.825Z,8.96
2023-10-27T21:00:05.122Z,8.96
2023-10-27T21:02:31.919Z,8.94
2023-10-27T21:04:59.244Z,8.91
2023-10-27T21:07:26.422Z,8.92
2023-10-27T21:09:53.273Z,8.88
2023-10-27T21:12:20.640Z,8.87
2023-10-27T21:14:47.525Z,8.85
2023-10-27T21:17:14.955Z,8.82
2023-10-27T21:19:41.656Z,8.81
2023-10-27T21:22:08.299Z,8.82
2023-10-27T21:24:35.510Z,8.79
2023-10-27T21:27:02.744Z,8.78
2023-10-27T21:29:29.658Z,8.82
2023-10-27T21:31:56.195Z,8.82
2023-10-27T21:34:22.816Z,8.78
2023-10-27T21:36:49.436Z,8.78
2023-10-27T21:39:16.109Z,8.80
2023-10-27T21:41:42.883Z,8.83
2023-10-27T21:44:10.081Z,8.79
2023-10-27T21:46:36.710Z,8.84
2023-10-27T21:49:03.282Z,8.82
2023-10-27T21:51:29.747Z,8.84
2023-10-27T21:53:57.409Z,8.84
2023-10-27T21:56:24.490Z,8.84
2023-10-27T21:58:51.476Z,8.85
2023-10-27T22:01:18.054Z,8.84
2023-10-27T22:03:44.969Z,8.86
2023-10-27T22:06:11.657Z,8.88
2023-10-27T22:08:40.677Z,8.89
2023-10-27T22:11:09.841Z,8.83
2023-10-27T22:13:37.549Z,8.84
2023-10-27T22:16:04.899Z,8.83
2023-10-27T22:18:31.519Z,8.82
2023-10-27T22:20:58.202Z,8.87
2023-10-27T22:23:26.194Z,8.85
2023-10-27T22:25:53.199Z,8.80
2023-10-27T22:28:19.730Z,8.84
2023-10-27T22:30:48.203Z,8.83
2023-10-27T22:33:15.410Z,8.83
2023-10-27T22:35:42.275Z,8.82
2023-10-27T22:38:09.110Z,8.82
2023-10-27T22:40:36.027Z,8.84
2023-10-27T22:43:02.503Z,8.91
2023-10-27T22:45:29.151Z,8.89
2023-10-27T22:47:56.755Z,8.91
2023-10-27T22:50:26.383Z,8.90
2023-10-27T22:52:53.402Z,8.89
2023-10-27T22:55:21.854Z,8.92
2023-10-27T22:57:51.964Z,8.85
2023-10-27T23:00:18.650Z,8.85
2023-10-27T23:02:45.377Z,8.89
2023-10-27T23:05:11.947Z,8.94
2023-10-27T23:07:38.666Z,8.94
2023-10-27T23:10:05.624Z,8.96
2023-10-27T23:12:32.606Z,8.94
2023-10-27T23:14:59.365Z,8.94
2023-10-27T23:17:26.125Z,8.93
2023-10-27T23:19:53.653Z,8.92
2023-10-27T23:22:20.453Z,8.98
2023-10-27T23:24:47.257Z,8.93
2023-10-27T23:27:15.333Z,8.94
2023-10-27T23:29:42.134Z,8.93
2023-10-27T23:32:09.918Z,8.89
2023-10-27T23:34:37.302Z,8.95
2023-10-27T23:37:04.235Z,8.95
2023-10-27T23:39:33.703Z,8.95
2023-10-27T23:42:00.264Z,8.97
2023-10-27T23:44:26.765Z,8.95
2023-10-27T23:46:53.264Z,8.86
2023-10-27T23:49:22.612Z,8.86
2023-10-27T23:51:49.446Z,8.82
2023-10-27T23:54:18.893Z,8.78
2023-10-27T23:56:45.937Z,8.77
2023-10-27T23:59:12.472Z,8.80
